Time;durP1;ratioP1;P1;durP2;ratioP2;P2;SDS_P1;SDS_P2;PMS_P1;PMS_P2;Temp;Humidity;BMP_temperature;BMP_pressure;BME280_temperature;BME280_humidity;BME280_pressure;Samples;Min_cycle;Max_cycle;Signal;HPM_P1;HPM_P2
2023/10/06 00:00:50;;;;;;;5.40;2.05;;;;;;;20.46;52.62;102454.91;4945943;28;20035;-76
2023/10/06 00:03:15;;;;;;;4.57;2.00;;;;;;;20.48;52.74;102457.47;4938290;28;20039;-72
2023/10/06 00:05:42;;;;;;;5.13;1.70;;;;;;;20.44;52.64;102448.88;4943535;28;20037;-81
2023/10/06 00:08:10;;;;;;;5.30;2.00;;;;;;;20.46;52.50;102449.63;4944029;28;20039;-72
2023/10/06 00:10:44;;;;;;;5.90;1.98;;;;;;;20.46;52.84;102456.72;4943590;28;20034;-77
2023/10/06 00:13:12;;;;;;;;;;;;;;;20.51;52.55;102462.56;4945140;28;20030;-74
2023/10/06 00:15:38;;;;;;;4.97;1.92;;;;;;;20.50;52.31;102454.72;4943535;28;20469;-72
2023/10/06 00:18:08;;;;;;;4.78;1.88;;;;;;;20.47;52.41;102456.63;4944892;28;20030;-77
2023/10/06 00:20:49;;;;;;;7.63;1.73;;;;;;;20.44;52.64;102451.53;4935828;28;20035;-78
2023/10/06 00:23:22;;;;;;;4.78;2.15;;;;;;;20.44;52.64;102463.91;4946214;28;20035;-77
2023/10/06 00:25:51;;;;;;;7.10;2.20;;;;;;;20.44;52.65;102463.91;4944495;28;20039;-72
2023/10/06 00:28:19;;;;;;;4.63;1.90;;;;;;;20.43;52.56;102455.13;4945375;28;20836;-79
2023/10/06 00:30:58;;;;;;;5.22;1.80;;;;;;;20.41;52.45;102446.44;4946959;28;20051;-72
2023/10/06 00:33:33;;;;;;;4.93;1.90;;;;;;;20.42;52.53;102453.41;4944597;28;20039;-72
2023/10/06 00:36:11;;;;;;;5.43;1.90;;;;;;;20.42;52.71;102450.75;4945643;28;20031;-75
2023/10/06 00:38:36;;;;;;;5.03;1.92;;;;;;;20.40;52.33;102443.88;4930861;28;20122;-81
2023/10/06 00:41:06;;;;;;;4.82;1.67;;;;;;;20.42;52.57;102449.91;4942379;28;20106;-74
2023/10/06 00:43:39;;;;;;;5.05;1.90;;;;;;;20.42;52.30;102452.56;4939725;28;20061;-72
2023/10/06 00:46:07;;;;;;;4.10;2.08;;;;;;;20.41;52.80;102448.22;4929541;28;20033;-73
2023/10/06 00:48:35;;;;;;;3.60;1.90;;;;;;;20.40;52.50;102451.81;4941134;28;20035;-73
2023/10/06 00:51:02;;;;;;;5.00;1.73;;;;;;;20.40;52.37;102442.06;4942176;28;20035;-77
2023/10/06 00:53:31;;;;;;;4.95;1.50;;;;;;;20.38;52.50;102438.69;4942482;28;20486;-74
2023/10/06 00:56:00;;;;;;;4.88;2.00;;;;;;;20.40;52.62;102441.25;4942153;28;20032;-73
2023/10/06 00:58:30;;;;;;;4.97;1.80;;;;;;;20.40;52.56;102449.19;4941261;28;20848;-72
2023/10/06 01:01:07;;;;;;;4.90;2.28;;;;;;;20.41;52.40;102445.56;4941792;28;20038;-71
2023/10/06 01:03:42;;;;;;;5.17;1.90;;;;;;;20.41;52.26;102442.91;4941998;28;20057;-74
2023/10/06 01:06:13;;;;;;;5.65;2.28;;;;;;;20.39;52.63;102437.72;4949092;28;20380;-72
2023/10/06 01:08:40;;;;;;;5.30;1.85;;;;;;;20.38;52.28;102428.09;4943050;28;20031;-73
2023/10/06 01:11:16;;;;;;;4.07;1.50;;;;;;;20.38;52.32;102428.09;4948438;28;20039;-77
2023/10/06 01:13:52;;;;;;;4.70;1.90;;;;;;;20.38;52.53;102427.25;4945966;28;20031;-75
2023/10/06 01:16:22;;;;;;;6.57;2.13;;;;;;;20.38;52.48;102417.50;4949375;28;20463;-74
2023/10/06 01:18:52;;;;;;;3.50;1.70;;;;;;;20.38;52.30;102420.16;4949132;28;20122;-74
2023/10/06 01:21:25;;;;;;;4.85;2.08;;;;;;;20.37;52.19;102415.78;4931360;28;20024;-72
2023/10/06 01:23:50;;;;;;;5.78;2.05;;;;;;;20.38;52.42;102414.84;4947452;28;20042;-73
2023/10/06 01:26:15;;;;;;;3.70;1.80;;;;;;;20.36;52.58;102414.13;4949636;28;20035;-75
2023/10/06 01:28:45;;;;;;;5.27;1.80;;;;;;;20.37;52.22;102421.09;4948192;28;20047;-76
2023/10/06 01:31:12;;;;;;;6.28;1.80;;;;;;;20.37;52.55;102414.97;4947072;28;20296;-72
2023/10/06 01:33:40;;;;;;;5.00;1.83;;;;;;;20.35;52.34;102415.06;4946449;28;20642;-78
2023/10/06 01:36:13;;;;;;;4.25;1.75;;;;;;;20.36;52.22;102423.84;4945932;28;20500;-77
2023/10/06 01:38:41;;;;;;;3.92;1.67;;;;;;;20.36;52.36;102421.19;4948100;28;20472;-72
2023/10/06 01:41:08;;;;;;;4.53;1.65;;;;;;;20.35;52.41;102415.06;4945514;28;20150;-72
2023/10/06 01:43:34;;;;;;;5.53;2.30;;;;;;;20.35;52.32;102415.06;4948418;28;20126;-72
2023/10/06 01:45:59;;;;;;;3.35;1.63;;;;;;;20.36;52.12;102411.47;4942976;28;20484;-77
2023/10/06 01:48:28;;;;;;;4.53;2.03;;;;;;;20.34;52.11;102405.41;4946371;28;20093;-74
2023/10/06 01:50:55;;;;;;;6.22;1.90;;;;;;;20.36;52.43;102407.94;4949916;28;20034;-73
2023/10/06 01:53:20;;;;;;;4.15;1.65;;;;;;;20.34;52.16;102402.75;4947467;28;20046;-72
2023/10/06 01:55:51;;;;;;;4.55;2.13;;;;;;;20.32;52.45;102404.66;4945511;28;20043;-74
2023/10/06 01:58:16;;;;;;;5.60;2.30;;;;;;;20.34;52.00;102404.56;4948769;28;20039;-73
2023/10/06 02:00:45;;;;;;;4.68;2.03;;;;;;;20.34;52.24;102399.28;4949632;28;20035;-76
2023/10/06 02:03:10;;;;;;;5.65;1.95;;;;;;;20.33;52.13;102389.63;4947835;28;20042;-73
2023/10/06 02:05:39;;;;;;;5.70;2.00;;;;;;;20.31;52.10;102387.06;4932466;28;20031;-72
2023/10/06 02:08:06;;;;;;;5.03;1.90;;;;;;;20.32;52.32;102387.94;4950275;28;20074;-77
2023/10/06 02:10:32;;;;;;;5.15;2.10;;;;;;;20.30;52.21;102385.41;4950584;28;20227;-78
2023/10/06 02:12:58;;;;;;;4.40;2.00;;;;;;;20.30;52.14;102398.63;4943429;28;20038;-77
2023/10/06 02:15:24;;;;;;;5.90;2.05;;;;;;;20.32;52.12;102398.53;4950921;28;20035;-73
2023/10/06 02:17:50;;;;;;;6.20;2.33;;;;;;;20.31;52.12;102397.66;4948741;28;20039;-79
2023/10/06 02:23:00;;;;;;;6.18;1.95;;;;;;;20.29;51.88;102400.41;4946314;28;20106;-72
2023/10/06 02:25:27;;;;;;;8.80;2.25;;;;;;;20.30;52.24;102403.94;4944198;28;20054;-78
2023/10/06 02:27:53;;;;;;;5.55;1.83;;;;;;;20.29;52.20;102392.47;4941458;28;20077;-73
2023/10/06 02:30:33;;;;;;;3.78;1.63;;;;;;;20.29;52.36;102396.94;4944419;28;20166;-73
2023/10/06 02:33:03;;;;;;;5.10;1.90;;;;;;;20.28;52.14;102390.78;4943592;28;20036;-72
2023/10/06 02:35:28;;;;;;;3.97;1.83;;;;;;;20.28;52.30;102395.22;4934587;28;20033;-73
2023/10/06 02:37:57;;;;;;;6.35;2.22;;;;;;;20.28;51.96;102396.09;4943283;28;20039;-73
2023/10/06 02:40:29;;;;;;;4.15;1.75;;;;;;;20.25;52.10;102388.34;4943195;28;20039;-72
2023/10/06 02:42:56;;;;;;;4.40;1.73;;;;;;;20.27;52.09;102397.03;4941546;28;20035;-72
2023/10/06 02:45:22;;;;;;;5.15;2.00;;;;;;;20.28;52.29;102389.94;4943107;28;20497;-72
2023/10/06 02:47:48;;;;;;;4.72;2.00;;;;;;;20.27;52.05;102386.44;4942646;28;20073;-78
2023/10/06 02:50:18;;;;;;;4.97;2.00;;;;;;;20.27;52.12;102382.97;4944977;28;20034;-76
2023/10/06 02:52:46;;;;;;;4.40;1.85;;;;;;;20.26;51.99;102383.88;4945414;28;20027;-74
2023/10/06 02:55:19;;;;;;;4.90;1.92;;;;;;;20.26;52.01;102381.25;4946877;28;20070;-76
2023/10/06 02:57:50;;;;;;;5.25;1.75;;;;;;;20.26;52.01;102390.03;4944361;28;20069;-72
2023/10/06 03:00:31;;;;;;;4.95;2.10;;;;;;;20.26;52.20;102382.09;4941353;28;20098;-74
2023/10/06 03:03:21;;;;;;;6.45;2.20;;;;;;;20.26;51.90;102389.19;4943596;28;20094;-77
2023/10/06 03:05:49;;;;;;;4.47;1.63;;;;;;;20.26;51.77;102381.25;4945141;28;20504;-72
2023/10/06 03:08:18;;;;;;;5.70;1.83;;;;;;;20.26;52.02;102379.44;4942869;28;20035;-72
2023/10/06 03:10:44;;;;;;;3.85;1.73;;;;;;;20.25;51.77;102372.47;4944062;28;20563;-72
2023/10/06 03:13:10;;;;;;;5.35;1.90;;;;;;;20.25;51.90;102371.59;4944232;28;20031;-73
2023/10/06 03:15:42;;;;;;;5.03;1.70;;;;;;;20.25;51.89;102364.53;4945298;28;20378;-73
2023/10/06 03:18:09;;;;;;;4.28;1.83;;;;;;;20.25;52.02;102366.31;4945052;28;20034;-73
2023/10/06 03:20:46;;;;;;;4.47;2.10;;;;;;;20.25;51.77;102367.16;4942455;28;20036;-78
2023/10/06 03:23:36;;;;;;;4.50;1.98;;;;;;;20.23;51.83;102363.75;4943666;28;20057;-73
2023/10/06 03:26:09;;;;;;;4.82;1.92;;;;;;;20.25;51.89;102361.00;4943429;28;20073;-77
2023/10/06 03:28:42;;;;;;;6.03;2.78;;;;;;;20.24;52.03;102361.97;4945015;28;20097;-73
2023/10/06 03:33:44;;;;;;;5.03;2.00;;;;;;;20.23;51.82;102371.69;4944998;28;20046;-77
2023/10/06 03:36:09;;;;;;;5.05;2.10;;;;;;;20.22;51.92;102370.03;4943026;28;20094;-76
2023/10/06 03:38:42;;;;;;;5.43;2.17;;;;;;;20.22;51.89;102379.75;4942746;28;20047;-74
2023/10/06 03:41:24;;;;;;;5.03;1.92;;;;;;;20.22;51.57;102377.97;4943240;28;20096;-72
2023/10/06 03:43:51;;;;;;;4.38;2.05;;;;;;;20.22;52.06;102377.97;4942824;28;20050;-80
2023/10/06 03:46:19;;;;;;;4.00;1.73;;;;;;;20.22;51.76;102379.75;4943134;28;20134;-73
2023/10/06 03:48:45;;;;;;;4.57;2.03;;;;;;;20.21;52.03;102370.97;4941907;28;20042;-76
2023/10/06 03:51:11;;;;;;;4.10;1.80;;;;;;;20.20;51.83;102369.28;4943858;28;20074;-77
2023/10/06 03:53:36;;;;;;;5.15;1.92;;;;;;;20.20;51.75;102369.28;4944522;28;20039;-78
2023/10/06 03:56:02;;;;;;;5.20;2.15;;;;;;;20.20;51.59;102366.63;4946225;28;20122;-75
2023/10/06 03:58:28;;;;;;;5.53;2.30;;;;;;;20.20;51.94;102364.00;4943710;28;20456;-72
2023/10/06 04:00:53;;;;;;;4.80;1.95;;;;;;;20.20;51.63;102352.53;4945106;28;20062;-73
2023/10/06 04:03:19;;;;;;;4.75;2.25;;;;;;;20.19;51.81;102354.34;4946157;28;20081;-73
2023/10/06 04:05:45;;;;;;;5.18;1.73;;;;;;;20.19;51.72;102340.25;4937097;28;20038;-72
2023/10/06 04:08:14;;;;;;;6.20;2.08;;;;;;;20.19;51.49;102345.56;4960625;28;20034;-78
2023/10/06 04:10:42;;;;;;;4.65;1.98;;;;;;;20.19;51.68;102342.91;4957297;28;20042;-72
2023/10/06 04:13:10;;;;;;;5.50;1.95;;;;;;;20.18;51.77;102342.03;4954251;28;20065;-73
2023/10/06 04:15:39;;;;;;;4.90;1.83;;;;;;;20.18;51.78;102339.41;4953147;28;20039;-72
2023/10/06 04:18:10;;;;;;;4.78;1.90;;;;;;;20.16;51.45;102330.72;4953369;28;20035;-76
2023/10/06 04:20:42;;;;;;;4.70;1.80;;;;;;;20.15;51.59;102331.66;4942991;28;20035;-80
2023/10/06 04:23:08;;;;;;;4.93;1.88;;;;;;;20.14;51.60;102334.41;4948959;28;20499;-79
2023/10/06 04:25:37;;;;;;;5.45;1.90;;;;;;;20.17;51.61;102352.72;4930909;28;20035;-75
2023/10/06 04:28:08;;;;;;;4.72;1.70;;;;;;;20.16;51.54;102354.53;4952069;28;20034;-73
2023/10/06 04:30:38;;;;;;;4.95;2.00;;;;;;;20.14;51.70;102364.38;4945215;28;20513;-73
2023/10/06 04:33:08;;;;;;;5.43;1.98;;;;;;;20.14;51.67;102367.03;4926164;29;20035;-74
2023/10/06 04:35:34;;;;;;;3.80;1.73;;;;;;;20.16;51.40;102361.63;4929917;29;20500;-74
2023/10/06 04:38:00;;;;;;;3.83;1.80;;;;;;;20.15;51.76;102363.41;4931256;29;20036;-73
2023/10/06 04:40:27;;;;;;;4.18;1.90;;;;;;;20.14;51.46;102353.81;4942492;28;20081;-72
2023/10/06 04:42:52;;;;;;;3.80;1.60;;;;;;;20.15;51.61;102349.34;4942185;29;20062;-74
2023/10/06 04:45:18;;;;;;;4.30;1.73;;;;;;;20.15;51.49;102342.25;4932373;29;20867;-73
2023/10/06 04:47:43;;;;;;;5.55;2.03;;;;;;;20.15;51.39;102341.41;4931135;29;20035;-72
2023/10/06 04:50:09;;;;;;;4.18;1.80;;;;;;;20.13;51.29;102330.91;4931184;29;20028;-73
2023/10/06 04:52:39;;;;;;;6.38;1.90;;;;;;;20.14;51.37;102331.75;4928300;29;20036;-76
2023/10/06 04:55:10;;;;;;;4.70;2.20;;;;;;;20.14;51.46;102335.28;4928137;29;20042;-77
2023/10/06 04:57:36;;;;;;;3.88;1.70;;;;;;;20.14;51.23;102332.63;4929833;29;20114;-73
2023/10/06 05:00:03;;;;;;;4.40;1.70;;;;;;;20.14;51.29;102337.91;4927192;29;20044;-78
2023/10/06 05:02:28;;;;;;;5.43;1.88;;;;;;;20.14;51.29;102332.63;4940939;29;20382;-72
2023/10/06 05:04:54;;;;;;;5.63;1.80;;;;;;;20.11;51.22;102320.44;4927486;29;20098;-74
2023/10/06 05:07:19;;;;;;;5.80;1.90;;;;;;;20.13;51.38;102333.56;4926241;29;20118;-73
2023/10/06 05:09:46;;;;;;;4.30;2.13;;;;;;;20.12;51.57;102329.22;4926497;29;20039;-73
2023/10/06 05:12:14;;;;;;;3.80;1.80;;;;;;;20.12;51.17;102331.84;4940622;29;20203;-74
2023/10/06 05:14:39;;;;;;;5.18;1.70;;;;;;;20.10;51.52;102337.25;4923993;29;20131;-72
2023/10/06 05:17:05;;;;;;;6.03;1.90;;;;;;;20.11;51.33;102323.06;4926716;29;20036;-79
2023/10/06 05:19:34;;;;;;;4.80;1.80;;;;;;;20.12;51.21;102323.91;4925755;29;20038;-73
2023/10/06 05:22:03;;;;;;;4.15;1.55;;;;;;;20.11;51.24;102328.38;4928279;29;20042;-73
2023/10/06 05:24:29;;;;;;;4.15;1.70;;;;;;;20.11;51.13;102325.72;4928615;29;20316;-73
2023/10/06 05:26:55;;;;;;;4.38;2.08;;;;;;;20.11;51.16;102327.53;4928075;29;20031;-72
2023/10/06 05:29:20;;;;;;;4.53;1.40;;;;;;;20.11;51.23;102328.38;4929012;28;20257;-72
2023/10/06 05:31:45;;;;;;;5.40;1.92;;;;;;;20.10;51.30;102321.38;4947667;28;20035;-72
2023/10/06 05:34:10;;;;;;;5.60;1.90;;;;;;;20.12;51.25;102331.84;4946009;28;20035;-73
2023/10/06 05:36:36;;;;;;;3.45;1.73;;;;;;;20.11;51.42;102335.47;4931052;28;20050;-74
2023/10/06 05:39:02;;;;;;;3.90;1.70;;;;;;;20.10;51.38;102331.13;4947899;28;20027;-76
2023/10/06 05:41:32;;;;;;;5.40;1.80;;;;;;;20.09;51.38;102330.28;4947449;28;20492;-72
2023/10/06 05:43:58;;;;;;;5.03;1.70;;;;;;;20.10;51.33;102331.97;4945633;28;20042;-72
2023/10/06 05:46:24;;;;;;;6.30;2.28;;;;;;;20.10;51.65;102328.47;4946265;28;20038;-72
2023/10/06 05:48:51;;;;;;;4.65;2.00;;;;;;;20.10;51.16;102325.81;4931413;28;20051;-72
2023/10/06 05:51:21;;;;;;;4.72;1.90;;;;;;;20.08;51.17;102323.28;4945871;28;20102;-77
2023/10/06 05:53:48;;;;;;;4.10;1.83;;;;;;;20.07;51.32;102331.31;4945711;28;20031;-75
2023/10/06 05:56:15;;;;;;;4.43;1.60;;;;;;;20.09;51.49;102332.06;4943294;28;20023;-73
2023/10/06 05:58:44;;;;;;;3.83;1.52;;;;;;;20.08;51.37;102338.31;4944399;28;20138;-75
2023/10/06 06:01:18;;;;;;;5.80;1.77;;;;;;;20.10;51.60;102333.75;4933301;28;20031;-74
2023/10/06 06:03:45;;;;;;;5.45;2.00;;;;;;;20.08;51.24;102344.44;4943572;28;20079;-73
2023/10/06 06:06:10;;;;;;;4.80;1.80;;;;;;;20.08;51.23;102339.16;4945336;28;20477;-76
2023/10/06 06:08:39;;;;;;;4.57;1.90;;;;;;;20.09;51.25;102332.06;4946007;28;20046;-73
2023/10/06 06:11:05;;;;;;;3.83;1.60;;;;;;;20.09;51.38;102334.72;4927302;28;20122;-79
2023/10/06 06:13:31;;;;;;;4.13;1.85;;;;;;;20.09;51.32;102334.72;4943980;28;20515;-74
2023/10/06 06:15:56;;;;;;;4.18;1.70;;;;;;;20.08;51.44;102335.69;4944639;28;20043;-78
2023/10/06 06:18:21;;;;;;;5.20;1.65;;;;;;;20.09;51.38;102342.66;4945348;28;20507;-77
2023/10/06 06:20:47;;;;;;;4.55;1.80;;;;;;;20.09;51.31;102342.66;4946438;28;20027;-74
2023/10/06 06:23:12;;;;;;;4.80;1.92;;;;;;;20.09;51.16;102332.06;4946844;28;20463;-73
2023/10/06 06:25:39;;;;;;;4.43;1.80;;;;;;;20.10;51.23;102347.00;4943182;28;20051;-74
2023/10/06 06:28:05;;;;;;;3.70;1.73;;;;;;;20.09;51.33;102340.88;4952059;28;20674;-73
2023/10/06 06:30:33;;;;;;;6.25;1.95;;;;;;;20.08;51.40;102341.81;4950427;28;20075;-73
2023/10/06 06:33:01;;;;;;;6.07;1.90;;;;;;;20.08;51.20;102349.75;4952124;28;20089;-74
2023/10/06 06:35:28;;;;;;;4.32;1.75;;;;;;;20.08;51.46;102349.75;4950202;28;20069;-73
2023/10/06 06:38:01;;;;;;;4.57;1.70;;;;;;;20.06;51.24;102348.13;4947846;28;20102;-73
2023/10/06 06:40:30;;;;;;;4.47;1.80;;;;;;;20.07;51.59;102349.84;4953172;28;20034;-76
2023/10/06 06:42:56;;;;;;;4.65;1.80;;;;;;;20.06;51.32;102353.44;4946654;28;20491;-77
2023/10/06 06:45:24;;;;;;;5.97;1.63;;;;;;;20.06;51.83;102342.84;4947023;28;20034;-73
2023/10/06 06:47:50;;;;;;;4.63;1.70;;;;;;;20.05;51.86;102343.81;4946353;28;20065;-73
2023/10/06 06:50:17;;;;;;;4.60;1.70;;;;;;;20.05;51.88;102349.09;4946221;28;20035;-73
2023/10/06 06:52:47;;;;;;;4.07;1.70;;;;;;;20.03;51.89;102348.38;4946159;28;20045;-72
2023/10/06 06:55:13;;;;;;;4.88;2.00;;;;;;;20.04;51.97;102350.88;4944894;28;20033;-74
2023/10/06 06:57:45;;;;;;;6.53;2.20;;;;;;;20.03;51.98;102351.03;4946775;28;20042;-72
2023/10/06 07:00:16;;;;;;;6.05;3.35;;;;;;;20.02;52.04;102336.91;4944994;28;20042;-73
2023/10/06 07:02:45;;;;;;;5.65;1.73;;;;;;;20.02;52.03;102351.97;4943712;28;20047;-74
2023/10/06 07:05:12;;;;;;;5.00;1.70;;;;;;;20.02;52.17;102350.16;4931286;28;20038;-72
2023/10/06 07:07:43;;;;;;;7.63;2.00;;;;;;;20.01;52.05;102342.31;4940798;28;20125;-73
2023/10/06 07:10:11;;;;;;;6.90;2.00;;;;;;;20.03;52.11;102345.72;4932096;28;20027;-73
2023/10/06 07:12:37;;;;;;;5.82;1.70;;;;;;;20.02;52.28;102349.31;4944211;28;20038;-75
2023/10/06 07:15:03;;;;;;;6.53;1.90;;;;;;;20.03;52.34;102337.78;4942750;28;20031;-73
2023/10/06 07:17:30;;;;;;;6.43;1.73;;;;;;;20.04;52.23;102350.06;4943660;28;20592;-74
2023/10/06 07:20:00;;;;;;;5.53;1.85;;;;;;;20.04;52.38;102328.88;4942306;28;20039;-72
2023/10/06 07:22:29;;;;;;;5.90;1.90;;;;;;;20.06;52.36;102342.84;4942395;28;20054;-73
2023/10/06 07:24:55;;;;;;;7.47;2.10;;;;;;;20.06;52.77;102343.72;4942949;28;20035;-73
2023/10/06 07:27:21;;;;;;;7.53;1.88;;;;;;;20.06;52.71;102342.84;4942855;28;20043;-72
2023/10/06 07:29:46;;;;;;;5.47;1.90;;;;;;;20.09;52.73;102347.94;4943046;28;20047;-75
2023/10/06 07:32:13;;;;;;;8.15;3.03;;;;;;;20.10;52.80;102353.13;4943295;28;20028;-76
2023/10/06 07:34:39;;;;;;;5.70;1.90;;;;;;;20.13;52.54;102351.25;4942466;28;20083;-73
2023/10/06 07:37:04;;;;;;;5.13;2.05;;;;;;;20.13;52.88;102349.44;4942857;28;20403;-73
2023/10/06 07:39:31;;;;;;;7.50;2.00;;;;;;;20.14;52.98;102345.00;4943650;28;20031;-72
2023/10/06 07:41:57;;;;;;;7.05;2.13;;;;;;;20.14;52.91;102355.56;4942305;28;20122;-75
2023/10/06 07:44:24;;;;;;;4.63;1.75;;;;;;;20.15;53.13;102357.28;4941950;28;20118;-74
2023/10/06 07:46:52;;;;;;;6.90;2.00;;;;;;;20.17;53.32;102366.84;4941351;28;20039;-71
2023/10/06 07:49:17;;;;;;;5.78;1.90;;;;;;;20.14;53.06;102364.38;4940208;28;20031;-73
2023/10/06 07:51:45;;;;;;;5.57;2.08;;;;;;;20.15;52.88;102373.16;4941465;28;20369;-73
2023/10/06 07:54:10;;;;;;;5.13;1.90;;;;;;;20.15;52.96;102368.72;4940475;28;20878;-76
2023/10/06 07:56:36;;;;;;;5.47;1.90;;;;;;;20.15;53.12;102375.81;4941845;28;20039;-75
2023/10/06 07:59:01;;;;;;;8.60;2.03;;;;;;;20.17;53.21;102387.13;4942429;28;20039;-74
2023/10/06 08:01:27;;;;;;;5.32;2.00;;;;;;;20.19;52.90;102388.75;4942913;28;20038;-73
2023/10/06 08:03:53;;;;;;;5.90;1.80;;;;;;;20.21;52.95;102397.44;4941417;28;20049;-72
2023/10/06 08:06:20;;;;;;;4.68;1.90;;;;;;;20.23;53.08;102390.22;4942219;28;20799;-73
2023/10/06 08:08:48;;;;;;;5.43;1.95;;;;;;;20.22;53.38;102380.59;4939963;28;20126;-72
2023/10/06 08:11:13;;;;;;;6.05;2.10;;;;;;;20.18;53.45;102381.75;4938965;28;20117;-74
2023/10/06 08:13:40;;;;;;;6.38;1.90;;;;;;;20.10;53.63;102369.00;4942093;28;20552;-73
2023/10/06 08:16:06;;;;;;;5.32;1.88;;;;;;;20.09;53.69;102366.47;4942794;28;20035;-72
2023/10/06 08:18:32;;;;;;;7.47;2.53;;;;;;;20.03;53.94;102364.25;4925672;28;20489;-79
2023/10/06 08:21:00;;;;;;;5.57;1.90;;;;;;;19.99;53.66;102368.88;4941831;28;20047;-76
2023/10/06 08:23:27;;;;;;;6.60;1.90;;;;;;;19.94;54.16;102371.81;4942611;28;20035;-73
2023/10/06 08:25:56;;;;;;;7.05;2.20;;;;;;;19.89;54.04;102379.22;4941583;28;20110;-70
2023/10/06 08:28:24;;;;;;;8.57;2.30;;;;;;;19.89;54.21;102370.44;4941573;28;20844;-77
2023/10/06 08:30:50;;;;;;;7.85;2.40;;;;;;;19.98;54.12;102375.13;4943126;28;20047;-72
2023/10/06 08:33:15;;;;;;;7.55;1.80;;;;;;;20.13;53.77;102372.44;4942309;28;20504;-77
2023/10/06 08:35:40;;;;;;;6.95;2.30;;;;;;;20.20;53.34;102376.34;4942386;28;20027;-73
2023/10/06 08:38:07;;;;;;;6.43;1.85;;;;;;;20.27;53.51;102380.31;4942963;28;20067;-73
2023/10/06 08:40:36;;;;;;;7.20;2.50;;;;;;;20.29;53.42;102373.94;4943461;28;20034;-75
2023/10/06 08:43:02;;;;;;;8.90;2.65;;;;;;;20.33;53.21;102374.59;4943083;28;20878;-75
2023/10/06 08:45:29;;;;;;;5.47;2.20;;;;;;;20.33;53.18;102376.38;4944021;28;20039;-74
2023/10/06 08:47:58;;;;;;;9.40;2.80;;;;;;;20.36;53.10;102370.88;4943433;28;20035;-77
2023/10/06 08:50:30;;;;;;;5.75;2.03;;;;;;;20.36;53.34;102376.19;4947158;28;20494;-81
2023/10/06 08:52:58;;;;;;;8.77;2.10;;;;;;;20.39;53.49;102370.69;4948081;28;20057;-80
2023/10/06 08:55:25;;;;;;;5.75;2.00;;;;;;;20.42;53.46;102373.13;4943729;28;20462;-78
2023/10/06 08:57:52;;;;;;;6.72;2.03;;;;;;;20.42;53.48;102371.31;4944984;28;20031;-73
2023/10/06 09:00:19;;;;;;;6.25;2.10;;;;;;;20.44;53.26;102371.22;4942765;28;20038;-74
2023/10/06 09:02:48;;;;;;;7.22;2.53;;;;;;;20.44;53.16;102366.78;4945233;28;20902;-73
2023/10/06 09:05:17;;;;;;;7.93;2.20;;;;;;;20.45;53.60;102375.56;4932527;28;20079;-71
2023/10/06 09:07:59;;;;;;;6.10;2.00;;;;;;;20.43;53.51;102370.38;4946657;28;20440;-77
2023/10/06 09:10:26;;;;;;;7.13;2.17;;;;;;;20.45;53.20;102384.34;4946688;28;20067;-73
2023/10/06 09:13:11;;;;;;;5.90;2.10;;;;;;;20.44;53.55;102387.09;4942790;28;20043;-77
2023/10/06 09:15:40;;;;;;;6.53;2.10;;;;;;;20.45;53.54;102386.16;4934991;28;20047;-77
2023/10/06 09:18:18;;;;;;;5.45;1.95;;;;;;;20.44;53.72;102387.97;4950160;28;20039;-76
2023/10/06 09:20:45;;;;;;;8.63;2.22;;;;;;;20.46;53.46;102391.34;4946889;28;20063;-76
2023/10/06 09:23:11;;;;;;;11.38;2.40;;;;;;;20.46;53.71;102382.56;4947945;28;20035;-75
2023/10/06 09:25:45;;;;;;;7.10;2.40;;;;;;;20.45;53.66;102375.56;4949048;28;20043;-82
2023/10/06 09:28:16;;;;;;;7.90;2.05;;;;;;;20.47;53.44;102365.72;4954324;28;20039;-76
2023/10/06 09:30:56;;;;;;;4.43;1.98;;;;;;;20.46;53.74;102369.34;4951096;28;20841;-80
2023/10/06 09:33:27;;;;;;;6.13;2.20;;;;;;;20.46;53.44;102361.38;4953410;28;20619;-77
2023/10/06 09:36:21;;;;;;;6.20;2.10;;;;;;;20.45;53.67;102363.16;4938189;28;20063;-76
2023/10/06 09:38:47;;;;;;;6.00;2.25;;;;;;;20.50;53.48;102351.44;4952716;28;20405;-74
2023/10/06 09:41:25;;;;;;;7.38;2.10;;;;;;;20.46;53.80;102356.09;4943659;28;20094;-75
2023/10/06 09:43:53;;;;;;;6.55;1.92;;;;;;;20.48;53.93;102356.84;4947439;28;20071;-75
2023/10/06 09:46:22;;;;;;;4.95;1.75;;;;;;;20.51;53.51;102350.50;4943120;28;20111;-75
2023/10/06 09:48:51;;;;;;;6.25;2.08;;;;;;;20.49;53.64;102350.59;3646520;28;10001794;-82
2023/10/06 09:51:38;;;;;;;6.68;2.13;;;;;;;20.50;53.88;102352.28;4942458;28;20039;-76
2023/10/06 09:54:09;;;;;;;8.63;2.00;;;;;;;20.52;53.62;102346.88;4958456;28;20031;-76
2023/10/06 09:56:34;;;;;;;4.93;1.92;;;;;;;20.52;54.07;102347.75;4768983;28;23693;-76
2023/10/06 09:59:01;;;;;;;5.25;1.77;;;;;;;20.53;53.65;102349.41;3386441;28;10000491;-65
2023/10/06 10:01:28;;;;;;;9.27;1.83;;;;;;;20.42;54.32;102346.66;4073157;28;70417;-74
2023/10/06 10:03:55;;;;;;;4.65;1.70;;;;;;;20.28;54.26;102343.13;3854865;28;20040;-75
2023/10/06 10:06:22;;;;;;;6.30;1.88;;;;;;;20.24;54.73;102348.75;3598812;28;10232107;-75
2023/10/06 10:08:53;;;;;;;5.43;1.95;;;;;;;20.17;54.98;102350.94;2825784;28;10005586;-74
2023/10/06 10:11:30;;;;;;;4.88;2.15;;;;;;;20.12;55.20;102355.69;3996835;28;10005656;-82
2023/10/06 10:14:18;;;;;;;4.65;2.05;;;;;;;20.10;55.04;102342.53;4952286;28;20035;-75
2023/10/06 10:16:58;;;;;;;4.25;1.73;;;;;;;20.09;55.25;102343.50;4949045;28;20097;-73
2023/10/06 10:19:27;;;;;;;6.60;2.13;;;;;;;20.11;54.99;102349.53;4946263;28;20039;-75
2023/10/06 10:21:55;;;;;;;5.63;1.95;;;;;;;20.08;55.21;102346.25;4944977;28;20042;-74
2023/10/06 10:24:27;;;;;;;4.28;1.82;;;;;;;20.07;55.23;102341.91;3715385;28;10020762;-72
2023/10/06 10:26:59;;;;;;;6.50;2.20;;;;;;;20.10;55.14;102345.19;18;1610;10023514;-73
2023/10/06 10:29:24;;;;;;;5.22;1.80;;;;;;;20.12;55.01;102345.09;4599313;29;10001284;-74
2023/10/06 10:32:12;;;;;;;4.10;1.90;;;;;;;20.11;55.36;102341.59;4924924;29;20631;-74
2023/10/06 10:35:13;;;;;;;6.53;2.00;;;;;;;20.14;55.13;102340.56;4923225;29;20878;-73
2023/10/06 10:38:02;;;;;;;6.78;2.00;;;;;;;20.34;54.76;102338.38;451532;29;10021873;-71
2023/10/06 10:40:47;;;;;;;10.35;2.15;;;;;;;20.39;54.44;102326.50;1492209;29;10022889;-74
2023/10/06 10:43:14;;;;;;;8.97;2.37;;;;;;;20.47;54.52;102334.81;3067081;28;10001154;-74
2023/10/06 10:45:44;;;;;;;8.68;2.22;;;;;;;20.53;54.21;102325.56;4942969;28;20931;-74
2023/10/06 10:48:13;;;;;;;7.38;2.08;;;;;;;20.54;54.36;102324.63;4944376;28;20038;-74
2023/10/06 10:51:11;;;;;;;7.53;2.13;;;;;;;20.57;54.29;102313.84;4942510;28;20118;-74
2023/10/06 10:53:44;;;;;;;8.30;2.75;;;;;;;20.61;54.21;102331.19;4934771;28;20051;-75
2023/10/06 10:56:27;;;;;;;9.50;3.65;;;;;;;20.60;54.31;102318.06;4942913;28;20032;-75
2023/10/06 10:58:54;;;;;;;17.77;8.95;;;;;;;20.63;54.09;102328.44;4942378;28;20381;-76
2023/10/06 11:01:29;;;;;;;13.05;10.85;;;;;;;20.65;54.14;102322.13;4928621;28;20031;-76
2023/10/06 11:04:13;;;;;;;20.20;14.13;;;;;;;20.63;54.14;102317.84;4943742;28;20061;-75
2023/10/06 11:06:43;;;;;;;21.98;15.73;;;;;;;20.62;54.23;102324.13;4941143;28;20043;-76
2023/10/06 11:09:41;;;;;;;20.83;15.25;;;;;;;20.59;54.44;102327.81;4936023;28;20475;-73
2023/10/06 11:12:24;;;;;;;19.22;15.53;;;;;;;20.57;54.63;102332.38;3689799;28;10020747;-74
2023/10/06 11:14:51;;;;;;;24.65;16.63;;;;;;;20.61;54.67;102333.00;1532106;28;10002007;-76
2023/10/06 11:17:22;;;;;;;23.33;16.25;;;;;;;20.60;54.68;102331.28;4945957;28;20035;-79
2023/10/06 11:20:00;;;;;;;18.77;15.38;;;;;;;20.62;54.77;102324.13;4943608;28;20045;-75
2023/10/06 11:22:25;;;;;;;19.05;13.38;;;;;;;20.64;54.78;102323.06;4944778;28;20126;-73
2023/10/06 11:24:51;;;;;;;21.33;15.10;;;;;;;20.63;54.48;102321.38;4929761;28;20141;-73
2023/10/06 11:27:22;;;;;;;20.13;13.75;;;;;;;20.63;54.69;102316.06;4945601;28;20042;-77
2023/10/06 11:29:59;;;;;;;20.63;13.32;;;;;;;20.64;54.94;102323.06;4944780;28;20500;-73
2023/10/06 11:32:28;;;;;;;18.70;13.00;;;;;;;20.67;54.61;102326.47;4944337;28;20093;-73
2023/10/06 11:34:54;;;;;;;17.38;11.52;;;;;;;20.66;54.79;102315.03;4944613;28;20031;-73
2023/10/06 11:37:24;;;;;;;15.40;12.38;;;;;;;20.67;54.93;102319.38;4944954;28;20035;-73
2023/10/06 11:39:52;;;;;;;18.50;11.30;;;;;;;20.68;55.01;102317.56;4943039;28;20031;-75